createdAt,value
2019-01-15T00:01:55.421Z,1.70
2019-01-15T00:04:36.773Z,1.47
2019-01-15T00:07:17.532Z,1.30
2019-01-15T00:09:58.864Z,1.40
2019-01-15T00:12:39.642Z,1.30
2019-01-15T00:15:20.311Z,1.60
2019-01-15T00:18:00.841Z,1.43
2019-01-15T00:20:42.167Z,1.60
2019-01-15T00:23:23.086Z,1.73
2019-01-15T00:26:04.495Z,1.33
2019-01-15T00:28:45.981Z,1.30
2019-01-15T00:31:25.432Z,1.40
2019-01-15T00:37:00.904Z,1.67
2019-01-15T00:39:42.361Z,1.70
2019-01-15T00:42:22.944Z,1.23
2019-01-15T00:45:04.370Z,1.73
2019-01-15T00:47:45.857Z,1.17
2019-01-15T00:50:26.736Z,1.47
2019-01-15T00:53:07.407Z,1.30
2019-01-15T00:55:48.469Z,1.30
2019-01-15T00:58:29.740Z,1.40
2019-01-15T01:01:10.433Z,1.70
2019-01-15T01:03:51.072Z,1.57
2019-01-15T01:06:32.456Z,1.60
2019-01-15T01:09:13.920Z,1.70
2019-01-15T01:11:54.661Z,1.80
2019-01-15T01:14:35.612Z,1.50
2019-01-15T01:17:16.377Z,1.40
2019-01-15T01:19:57.084Z,1.47
2019-01-15T01:22:38.527Z,1.60
2019-01-15T01:25:19.340Z,2.00
2019-01-15T01:28:00.466Z,1.30
2019-01-15T01:30:40.965Z,1.30
2019-01-15T01:33:21.507Z,1.40
2019-01-15T01:36:02.325Z,1.60
2019-01-15T01:38:43.053Z,1.73
2019-01-15T01:41:22.503Z,1.30
2019-01-15T01:44:03.567Z,1.50
2019-01-15T01:46:44.923Z,1.70
2019-01-15T01:49:25.588Z,1.60
2019-01-15T01:52:06.089Z,1.43
2019-01-15T01:54:46.672Z,1.40
2019-01-15T01:57:27.304Z,1.57
2019-01-15T02:00:08.773Z,1.50
2019-01-15T02:02:49.693Z,1.70
2019-01-15T02:05:30.378Z,1.63
2019-01-15T02:08:11.074Z,1.50
2019-01-15T02:10:52.532Z,1.50
2019-01-15T02:13:33.881Z,1.63
2019-01-15T02:16:15.000Z,1.23
2019-01-15T02:18:55.824Z,1.17
2019-01-15T02:21:37.128Z,1.67
2019-01-15T02:24:18.625Z,1.33
2019-01-15T02:27:01.260Z,1.67
2019-01-15T02:29:41.956Z,1.83
2019-01-15T02:32:22.732Z,1.70
2019-01-15T02:35:04.185Z,1.30
2019-01-15T02:37:44.925Z,2.00
2019-01-15T02:40:25.668Z,1.30
2019-01-15T02:43:06.225Z,1.13
2019-01-15T02:45:46.789Z,1.27
2019-01-15T02:48:27.697Z,1.10
2019-01-15T02:51:08.488Z,1.37
2019-01-15T02:53:49.841Z,1.40
2019-01-15T02:56:30.689Z,1.67
2019-01-15T02:59:12.057Z,1.33
2019-01-15T03:01:52.734Z,1.83
2019-01-15T03:04:34.049Z,1.67
2019-01-15T03:07:14.643Z,1.50
2019-01-15T03:09:55.260Z,1.70
2019-01-15T03:12:36.844Z,1.90
2019-01-15T03:15:18.336Z,1.37
2019-01-15T03:17:58.879Z,1.50
2019-01-15T03:20:39.486Z,2.00
2019-01-15T03:23:20.896Z,1.77
2019-01-15T03:26:01.479Z,1.73
2019-01-15T03:28:40.946Z,1.40
2019-01-15T03:31:29.329Z,1.87
2019-01-15T03:34:09.981Z,1.57
2019-01-15T03:36:51.296Z,1.80
2019-01-15T03:39:32.675Z,2.20
2019-01-15T03:42:14.047Z,1.90
2019-01-15T03:44:54.609Z,1.90
2019-01-15T03:47:35.312Z,2.13
2019-01-15T03:50:16.103Z,2.60
2019-01-15T03:52:55.496Z,2.60
2019-01-15T03:55:36.588Z,2.47
2019-01-15T03:58:17.278Z,1.93
2019-01-15T04:00:58.685Z,2.00
2019-01-15T04:03:40.133Z,2.27
2019-01-15T04:06:21.045Z,1.80
2019-01-15T04:09:01.794Z,2.10
2019-01-15T04:11:43.152Z,2.20
2019-01-15T04:14:23.951Z,2.20
2019-01-15T04:17:05.368Z,2.03
2019-01-15T04:19:46.322Z,2.00
2019-01-15T04:22:27.728Z,1.77
2019-01-15T04:25:08.502Z,1.90
2019-01-15T04:27:49.342Z,1.40
2019-01-15T04:30:30.108Z,2.47
2019-01-15T04:33:11.547Z,2.27
2019-01-15T04:35:52.340Z,1.73
2019-01-15T04:38:33.001Z,2.30
2019-01-15T04:41:14.292Z,2.27
2019-01-15T04:43:54.964Z,2.60
2019-01-15T04:46:36.281Z,2.67
2019-01-15T04:49:17.072Z,2.20
2019-01-15T04:51:57.957Z,3.10
2019-01-15T04:54:39.048Z,2.10
2019-01-15T04:57:19.861Z,2.07
2019-01-15T05:00:00.792Z,1.97
2019-01-15T05:02:42.553Z,2.10
2019-01-15T05:05:22.098Z,2.03
2019-01-15T05:10:57.353Z,2.20
2019-01-15T05:13:37.979Z,2.23
2019-01-15T05:16:18.636Z,1.90
2019-01-15T05:19:00.041Z,2.33
2019-01-15T05:21:40.688Z,2.53
2019-01-15T05:24:21.362Z,2.07
2019-01-15T05:27:01.943Z,2.20
2019-01-15T05:29:42.752Z,2.93
2019-01-15T05:32:23.597Z,2.50
2019-01-15T05:35:04.393Z,2.30
2019-01-15T05:37:45.665Z,3.73
2019-01-15T05:40:26.279Z,3.30
2019-01-15T05:43:07.013Z,2.83
2019-01-15T05:45:50.365Z,2.67
2019-01-15T05:48:37.817Z,2.90
2019-01-15T05:54:17.611Z,2.37
2019-01-15T05:56:58.829Z,2.53
2019-01-15T05:59:39.660Z,2.23
2019-01-15T06:02:20.531Z,2.87
2019-01-15T06:05:01.424Z,2.57
2019-01-15T06:07:42.069Z,3.00
2019-01-15T06:10:23.340Z,3.07
2019-01-15T06:13:04.444Z,3.37
2019-01-15T06:15:45.808Z,2.37
2019-01-15T06:18:26.411Z,2.30
2019-01-15T06:21:07.828Z,2.40
2019-01-15T06:23:48.453Z,2.20
2019-01-15T06:26:28.978Z,2.47
2019-01-15T06:29:11.041Z,2.50
2019-01-15T06:31:52.426Z,3.40
2019-01-15T06:34:31.909Z,3.00
2019-01-15T06:40:06.629Z,3.00
2019-01-15T06:42:47.973Z,2.87
2019-01-15T06:45:29.334Z,3.00
2019-01-15T06:48:10.692Z,2.53
2019-01-15T06:50:50.111Z,2.70
2019-01-15T06:53:31.077Z,2.80
2019-01-15T06:56:12.533Z,3.47
2019-01-15T06:58:53.513Z,3.80
2019-01-15T07:01:34.853Z,3.63
2019-01-15T07:04:16.264Z,3.40
2019-01-15T07:06:57.099Z,3.00
2019-01-15T07:09:38.637Z,2.93
2019-01-15T07:12:19.352Z,3.30
2019-01-15T07:15:00.842Z,3.17
2019-01-15T07:17:41.447Z,3.27
2019-01-15T07:20:22.813Z,3.33
2019-01-15T07:23:04.084Z,3.30
2019-01-15T07:25:44.756Z,2.77
2019-01-15T07:28:25.529Z,3.07
2019-01-15T07:31:06.333Z,2.83
2019-01-15T07:33:45.828Z,3.27
2019-01-15T07:36:25.265Z,2.87
2019-01-15T07:42:00.513Z,3.60
2019-01-15T07:44:41.917Z,3.13
2019-01-15T07:47:23.329Z,3.60
2019-01-15T07:50:04.173Z,2.90
2019-01-15T07:52:45.556Z,3.50
2019-01-15T07:55:26.533Z,3.53
2019-01-15T07:58:05.988Z,3.50
2019-01-15T08:00:46.944Z,3.60
2019-01-15T08:03:28.886Z,3.43
2019-01-15T08:06:09.726Z,3.43
2019-01-15T08:08:50.245Z,3.83
2019-01-15T08:11:31.584Z,3.47
2019-01-15T08:14:12.469Z,3.47
2019-01-15T08:16:53.988Z,3.80
2019-01-15T08:19:34.593Z,4.03
2019-01-15T08:22:15.865Z,4.63
2019-01-15T08:24:56.574Z,4.53
2019-01-15T08:27:37.908Z,4.40
2019-01-15T08:30:19.308Z,5.10
2019-01-15T08:33:00.211Z,3.83
2019-01-15T08:35:40.848Z,3.40
2019-01-15T08:38:21.558Z,3.70
2019-01-15T08:41:02.520Z,3.77
2019-01-15T08:43:43.925Z,3.33
2019-01-15T08:46:23.456Z,3.40
2019-01-15T08:52:11.842Z,3.60
2019-01-15T08:54:52.389Z,3.20
2019-01-15T08:57:32.967Z,3.30
2019-01-15T09:00:13.496Z,3.93
2019-01-15T09:02:54.062Z,3.50
2019-01-15T09:05:34.669Z,3.43
2019-01-15T09:08:16.096Z,3.90
2019-01-15T09:10:55.736Z,3.60
2019-01-15T09:13:36.576Z,3.40
2019-01-15T09:16:17.204Z,3.43
2019-01-15T09:18:58.536Z,3.57
2019-01-15T09:21:39.864Z,3.30
2019-01-15T09:24:21.149Z,2.70
2019-01-15T09:27:02.776Z,3.40
2019-01-15T09:29:43.265Z,3.43
2019-01-15T09:32:24.530Z,3.67
2019-01-15T09:35:05.377Z,3.37
2019-01-15T09:37:47.949Z,3.83
2019-01-15T09:40:29.258Z,3.43
2019-01-15T09:43:09.876Z,3.23
2019-01-15T09:45:50.375Z,3.33
2019-01-15T09:48:33.788Z,3.57
2019-01-15T09:51:14.716Z,3.87
2019-01-15T09:53:55.470Z,3.27
2019-01-15T09:56:36.777Z,3.87
2019-01-15T09:59:17.466Z,3.70
2019-01-15T10:01:58.024Z,3.33
2019-01-15T10:04:37.483Z,4.57
2019-01-15T10:07:25.832Z,3.20
2019-01-15T10:10:06.560Z,3.47
2019-01-15T10:12:47.969Z,3.33
2019-01-15T10:15:28.633Z,3.23
2019-01-15T10:18:09.365Z,3.90
2019-01-15T10:20:50.802Z,3.57
2019-01-15T10:23:32.209Z,3.87
2019-01-15T10:26:12.903Z,3.17
2019-01-15T10:28:54.361Z,3.73
2019-01-15T10:31:35.301Z,3.50
2019-01-15T10:34:15.956Z,3.37
2019-01-15T10:36:56.809Z,4.13
2019-01-15T10:39:37.479Z,3.93
2019-01-15T10:42:18.881Z,3.60
2019-01-15T10:45:00.206Z,4.30
2019-01-15T10:47:40.825Z,4.20
2019-01-15T10:50:21.496Z,5.00
2019-01-15T10:53:00.936Z,4.13
2019-01-15T10:55:41.509Z,4.30
2019-01-15T10:58:22.944Z,4.50
2019-01-15T11:01:03.601Z,4.07
2019-01-15T11:03:44.585Z,4.03
2019-01-15T11:06:25.198Z,4.40
2019-01-15T11:09:07.105Z,4.83
2019-01-15T11:11:48.316Z,4.57
2019-01-15T11:14:29.811Z,4.67
2019-01-15T11:17:10.333Z,4.30
2019-01-15T11:19:51.085Z,4.40
2019-01-15T11:22:31.653Z,4.30
2019-01-15T11:25:12.298Z,4.27
2019-01-15T11:27:52.829Z,4.40
2019-01-15T11:30:33.557Z,4.20
2019-01-15T11:33:14.180Z,4.27
2019-01-15T11:35:55.465Z,3.97
2019-01-15T11:38:36.793Z,4.60
2019-01-15T11:41:17.575Z,4.30
2019-01-15T11:43:59.038Z,3.70
2019-01-15T11:46:39.572Z,4.20
2019-01-15T11:49:19.067Z,4.50
2019-01-15T11:54:54.540Z,3.50
2019-01-15T11:57:35.883Z,4.00
2019-01-15T12:00:18.604Z,3.67
2019-01-15T12:03:21.289Z,3.40
2019-01-15T12:06:20.995Z,3.80
2019-01-15T12:09:21.045Z,3.53
2019-01-15T12:12:28.458Z,3.73
2019-01-15T12:15:27.959Z,3.47
2019-01-15T12:18:27.525Z,3.60
2019-01-15T12:24:30.315Z,3.50
2019-01-15T12:27:30.282Z,3.53
2019-01-15T12:30:32.781Z,3.37
2019-01-15T12:33:33.176Z,3.03
2019-01-15T12:39:35.305Z,3.20
2019-01-15T12:42:41.152Z,2.90
2019-01-15T12:45:41.576Z,3.17
2019-01-15T12:48:41.710Z,3.00
2019-01-15T12:51:47.121Z,3.33
2019-01-15T12:54:46.912Z,3.23
2019-01-15T12:57:47.202Z,3.23
2019-01-15T13:00:46.671Z,3.83
2019-01-15T13:03:46.322Z,7.30
2019-01-15T13:06:45.931Z,9.33
2019-01-15T13:09:46.191Z,9.73
2019-01-15T13:12:51.501Z,14.90
2019-01-15T13:15:51.646Z,3.90
2019-01-15T13:18:51.507Z,3.87
2019-01-15T13:21:51.146Z,2.83
2019-01-15T13:24:51.424Z,3.20
2019-01-15T13:27:51.170Z,3.70
2019-01-15T13:30:58.435Z,3.47
2019-01-15T13:33:58.153Z,3.67
2019-01-15T13:40:01.651Z,3.77
2019-01-15T13:43:01.117Z,3.40
2019-01-15T13:46:00.793Z,3.30
2019-01-15T13:49:08.604Z,3.40
2019-01-15T13:52:08.832Z,3.40
2019-01-15T13:55:08.204Z,3.37
2019-01-15T13:58:07.944Z,4.23
2019-01-15T14:01:07.710Z,3.60
2019-01-15T14:04:07.434Z,3.43
2019-01-15T14:10:20.373Z,3.93
2019-01-15T14:13:20.003Z,3.80
2019-01-15T14:16:22.561Z,3.97
2019-01-15T14:19:22.751Z,3.37
2019-01-15T14:22:23.054Z,3.87
2019-01-15T14:25:22.723Z,3.60
2019-01-15T14:28:23.156Z,4.00
2019-01-15T14:37:43.085Z,3.60
2019-01-15T14:40:45.700Z,3.60
2019-01-15T14:43:45.154Z,4.20
2019-01-15T14:46:45.453Z,3.63
2019-01-15T14:49:46.596Z,3.30
2019-01-15T14:52:53.882Z,3.37
2019-01-15T14:59:08.199Z,3.60
2019-01-15T15:05:20.207Z,3.10
2019-01-15T15:08:19.730Z,3.60
2019-01-15T15:11:19.195Z,4.20
2019-01-15T15:17:22.068Z,3.20
2019-01-15T15:20:28.388Z,2.80
2019-01-15T15:23:28.411Z,3.23
2019-01-15T15:26:27.802Z,2.60
2019-01-15T15:29:27.522Z,2.93
2019-01-15T15:32:27.739Z,2.43
2019-01-15T15:38:47.538Z,2.90
2019-01-15T15:41:47.060Z,2.07
2019-01-15T15:44:48.695Z,2.30
2019-01-15T15:47:53.256Z,2.30
2019-01-15T15:50:52.933Z,2.80
2019-01-15T15:54:00.224Z,2.70
2019-01-15T15:56:59.712Z,2.30
2019-01-15T16:00:05.265Z,2.10
2019-01-15T16:03:04.828Z,2.43
2019-01-15T16:06:04.790Z,2.60
2019-01-15T16:09:04.873Z,2.40
2019-01-15T16:15:18.080Z,2.70
2019-01-15T16:18:25.874Z,2.77
2019-01-15T16:21:33.261Z,2.63
2019-01-15T16:24:36.269Z,2.23
2019-01-15T16:27:35.847Z,2.40
2019-01-15T16:30:41.481Z,2.90
2019-01-15T16:33:41.312Z,3.10
2019-01-15T16:36:47.586Z,2.50
2019-01-15T16:39:47.899Z,2.67
2019-01-15T16:42:48.238Z,2.70
2019-01-15T16:45:47.730Z,2.50
2019-01-15T16:48:48.088Z,2.57
2019-01-15T16:51:50.646Z,2.63
2019-01-15T16:54:50.436Z,3.40
2019-01-15T16:57:50.687Z,3.00
2019-01-15T17:00:50.128Z,3.30
2019-01-15T17:03:49.666Z,3.60
2019-01-15T17:06:49.973Z,3.53
2019-01-15T17:09:55.438Z,2.93
2019-01-15T17:12:55.295Z,2.70
2019-01-15T17:15:54.941Z,3.03
2019-01-15T17:18:46.826Z,3.00
2019-01-15T17:21:47.193Z,3.03
2019-01-15T17:24:46.674Z,3.00
2019-01-15T17:27:46.223Z,2.73
2019-01-15T17:30:45.933Z,3.40
2019-01-15T17:33:49.252Z,3.60
2019-01-15T17:40:09.933Z,3.10
2019-01-15T17:43:09.823Z,3.90
2019-01-15T17:46:10.162Z,3.73
2019-01-15T17:52:10.282Z,3.47
2019-01-15T17:55:09.786Z,3.43
2019-01-15T18:04:35.180Z,3.40
2019-01-15T18:10:46.400Z,3.70
2019-01-15T18:13:46.432Z,3.73
2019-01-15T18:16:48.752Z,4.00
2019-01-15T18:19:48.208Z,3.73
2019-01-15T18:22:47.620Z,3.70
2019-01-15T18:25:47.282Z,3.70
2019-01-15T18:28:46.864Z,3.77
2019-01-15T18:31:54.127Z,3.83
2019-01-15T18:34:53.773Z,3.93
2019-01-15T18:41:01.879Z,4.20
2019-01-15T18:44:01.975Z,4.40
2019-01-15T18:50:07.543Z,4.70
2019-01-15T18:53:13.604Z,4.53
2019-01-15T18:56:13.922Z,3.73
2019-01-15T18:59:02.217Z,4.53
2019-01-15T19:02:09.527Z,4.60
2019-01-15T19:05:09.307Z,4.60
2019-01-15T19:08:09.741Z,4.37
2019-01-15T19:14:11.676Z,5.13
2019-01-15T19:17:11.690Z,5.63
2019-01-15T19:20:11.320Z,5.23
2019-01-15T19:23:11.521Z,5.43
2019-01-15T19:26:11.400Z,5.10
2019-01-15T19:29:10.927Z,5.43
2019-01-15T19:32:13.483Z,5.87
2019-01-15T19:35:13.909Z,6.87
2019-01-15T19:38:14.220Z,6.40
2019-01-15T19:41:14.052Z,8.43
2019-01-15T19:44:14.472Z,6.33
2019-01-15T19:47:14.856Z,5.87
2019-01-15T19:50:15.185Z,5.77
2019-01-15T19:53:15.540Z,4.73
2019-01-15T19:56:17.876Z,5.87
2019-01-15T19:59:17.348Z,5.37
2019-01-15T20:02:22.728Z,5.13
2019-01-15T20:05:22.592Z,5.73
2019-01-15T20:11:38.892Z,6.03
2019-01-15T20:14:44.165Z,5.50
2019-01-15T20:17:41.981Z,5.17
2019-01-15T20:20:41.650Z,5.20
2019-01-15T20:23:48.587Z,5.60
2019-01-15T20:29:49.481Z,5.40
2019-01-15T20:32:52.058Z,5.50
2019-01-15T20:39:03.530Z,5.80
2019-01-15T20:42:06.632Z,5.13
2019-01-15T20:45:09.841Z,5.53
2019-01-15T20:48:09.859Z,5.87
2019-01-15T20:51:11.049Z,5.60
2019-01-15T20:54:19.111Z,5.50
2019-01-15T20:57:20.278Z,6.10
2019-01-15T21:00:23.360Z,5.93
2019-01-15T21:09:38.508Z,5.93
2019-01-15T21:12:38.784Z,7.17
2019-01-15T21:15:44.595Z,5.90
2019-01-15T21:24:51.956Z,5.47
2019-01-15T21:27:54.316Z,6.20
2019-01-15T21:30:53.923Z,5.50
2019-01-15T21:33:53.546Z,5.70
2019-01-15T21:37:00.806Z,5.33
2019-01-15T21:40:00.654Z,6.07
2019-01-15T21:43:00.848Z,5.70
2019-01-15T21:46:01.141Z,5.17
2019-01-15T21:49:00.937Z,6.13
2019-01-15T21:52:06.249Z,5.43
2019-01-15T22:01:32.229Z,5.77
2019-01-15T22:04:35.472Z,5.70
2019-01-15T22:07:35.191Z,5.73
2019-01-15T22:10:35.489Z,5.43
2019-01-15T22:13:35.834Z,5.90
2019-01-15T22:22:47.196Z,6.30
2019-01-15T22:25:47.199Z,6.07
2019-01-15T22:28:34.764Z,5.40
2019-01-15T22:34:45.129Z,5.63
2019-01-15T22:40:29.505Z,5.77
2019-01-15T22:43:29.703Z,5.73
2019-01-15T22:46:29.407Z,5.37
2019-01-15T22:49:36.733Z,5.10
2019-01-15T22:55:51.178Z,5.67
2019-01-15T22:58:51.454Z,5.37
2019-01-15T23:04:52.278Z,5.10
2019-01-15T23:11:10.227Z,5.60
2019-01-15T23:14:10.426Z,5.47
2019-01-15T23:17:10.857Z,5.40
2019-01-15T23:20:02.320Z,5.30
2019-01-15T23:23:09.599Z,5.03
2019-01-15T23:26:09.382Z,5.10
2019-01-15T23:32:18.199Z,5.43
2019-01-15T23:38:33.087Z,5.00
2019-01-15T23:41:32.559Z,5.23
2019-01-15T23:44:38.995Z,4.97
2019-01-15T23:47:38.563Z,5.30
2019-01-15T23:50:38.135Z,5.03
2019-01-15T23:53:37.869Z,4.97
2019-01-15T23:56:45.201Z,4.60
